Time;durP1;ratioP1;P1;durP2;ratioP2;P2;SDS_P1;SDS_P2;PMS_P1;PMS_P2;Temp;Humidity;BMP_temperature;BMP_pressure;BME280_temperature;BME280_humidity;BME280_pressure;Samples;Min_cycle;Max_cycle;Signal;HPM_P1;HPM_P2
2022/01/28 00:00:32;;;;;;;;;69.25;51.75;;;;;9.15;65.13;102874.31;5052549;28;45165;-48
2022/01/28 00:05:29;;;;;;;;;58.75;46.00;;;;;9.20;65.04;102884.06;5039765;28;45158;-51
2022/01/28 00:07:55;;;;;;;;;66.00;51.00;;;;;9.21;64.81;102872.72;5048013;28;45468;-51
2022/01/28 00:10:22;;;;;;;;;64.00;50.25;;;;;9.21;65.02;102872.72;5043449;28;45283;-49
2022/01/28 00:39:25;;;;;;;;;68.00;51.25;;;;;9.19;64.81;102894.53;5040700;28;45248;-47
2022/01/28 00:41:51;;;;;;;;;62.50;49.00;;;;;9.20;64.87;102902.44;5053394;28;45302;-47
2022/01/28 00:44:17;;;;;;;;;64.00;50.50;;;;;9.20;65.13;102905.06;5056352;28;46255;-48
2022/01/28 00:46:42;;;;;;;;;72.25;53.00;;;;;9.18;65.13;102908.50;5042731;28;45586;-49
2022/01/28 00:49:07;;;;;;;;;61.25;47.75;;;;;9.20;65.01;102904.19;5041476;28;45699;-51
2022/01/28 00:51:33;;;;;;;;;67.50;49.50;;;;;9.24;64.81;102913.91;5042378;28;45284;-49
2022/01/28 00:53:58;;;;;;;;;63.75;49.00;;;;;9.24;65.00;102909.56;5041925;28;45360;-51
2022/01/28 00:56:24;;;;;;;;;68.25;50.00;;;;;9.25;64.87;102898.19;5042445;28;45314;-51
2022/01/28 00:58:49;;;;;;;;;68.00;51.75;;;;;9.26;64.79;102909.59;5042485;28;45876;-49
2022/01/28 01:01:15;;;;;;;;;62.25;49.75;;;;;9.28;64.90;102915.75;5042249;28;45446;-50
2022/01/28 01:03:40;;;;;;;;;64.25;50.50;;;;;9.28;64.90;102918.38;5041908;28;47258;-48
2022/01/28 01:06:06;;;;;;;;;67.25;53.00;;;;;9.29;64.95;102929.78;5042035;28;45253;-51
2022/01/28 01:08:31;;;;;;;;;63.50;49.00;;;;;9.31;65.01;102925.44;5041239;28;45422;-50
2022/01/28 01:10:56;;;;;;;;;66.50;51.75;;;;;9.31;65.07;102928.97;5062265;28;45318;-50
2022/01/28 01:13:22;;;;;;;;;63.00;48.75;;;;;9.29;65.02;102919.28;5047267;28;45375;-51
2022/01/28 01:15:53;;;;;;;;;64.00;51.25;;;;;9.33;65.00;102919.38;5057869;27;45450;-49
2022/01/28 01:18:36;;;;;;;;;61.50;48.50;;;;;9.33;65.02;102922.00;5056443;28;45306;-51
2022/01/28 01:21:06;;;;;;;;;67.00;51.00;;;;;9.35;65.04;102930.81;5032140;28;45314;-52
2022/01/28 01:23:35;;;;;;;;;59.50;49.25;;;;;9.36;64.86;102929.09;5041693;28;47296;-50
2022/01/28 01:28:37;;;;;;;;;63.50;48.75;;;;;9.36;64.81;102937.84;5040821;28;45431;-51
2022/01/28 01:31:05;;;;;;;;;68.75;52.75;;;;;9.35;64.96;102941.31;5041928;28;45383;-51
2022/01/28 01:33:37;;;;;;;;;69.25;52.25;;;;;9.35;64.73;102943.94;5040483;28;46378;-50
2022/01/28 01:36:03;;;;;;;;;62.00;48.25;;;;;9.35;64.93;102943.94;5040679;28;45422;-51
2022/01/28 01:38:33;;;;;;;;;57.75;47.25;;;;;9.34;65.02;102942.16;5041905;28;45355;-48
2022/01/28 01:41:01;;;;;;;;;66.50;51.00;;;;;9.26;65.15;102925.34;5041301;28;46361;-52
2022/01/28 01:46:16;;;;;;;;;66.00;52.50;;;;;9.34;64.91;102951.78;5041661;28;45311;-52
2022/01/28 01:54:11;;;;;;;;;63.50;50.00;;;;;9.32;65.09;102971.81;5041136;28;45458;-49
2022/01/28 01:56:38;;;;;;;;;63.50;50.50;;;;;9.28;64.93;102955.09;5041446;28;45332;-49
2022/01/28 01:59:04;;;;;;;;;70.00;55.25;;;;;9.31;64.81;102963.06;5041370;28;45289;-49
2022/01/28 02:01:29;;;;;;;;;64.25;50.75;;;;;9.29;64.83;102975.25;5040937;28;45394;-51
2022/01/28 02:03:54;;;;;;;;;69.25;52.50;;;;;9.30;64.72;102970.91;5040922;28;45214;-49
2022/01/28 02:06:21;;;;;;;;;68.75;49.25;;;;;9.31;65.06;102977.91;5041287;28;45366;-49
2022/01/28 02:08:47;;;;;;;;;69.75;53.50;;;;;9.30;64.84;102979.66;5040875;28;45458;-49
2022/01/28 02:11:13;;;;;;;;;69.25;54.50;;;;;9.30;64.90;102982.28;5040953;28;45550;-47
2022/01/28 02:13:40;;;;;;;;;69.00;52.75;;;;;9.21;64.84;102968.94;5040651;28;45921;-53
2022/01/28 02:16:07;;;;;;;;;64.25;49.75;;;;;9.29;64.80;102988.38;5041163;28;45322;-51
2022/01/28 02:18:32;;;;;;;;;66.75;51.25;;;;;9.26;64.97;102973.44;5040988;28;45214;-47
2022/01/28 02:21:06;;;;;;;;;69.00;52.25;;;;;9.30;64.92;102984.03;5040969;28;45771;-48
2022/01/28 02:23:32;;;;;;;;;63.75;50.00;;;;;9.30;64.89;102987.53;5040753;28;46021;-49
2022/01/28 02:25:59;;;;;;;;;65.75;50.25;;;;;9.30;64.87;102991.91;5040955;28;45339;-49
2022/01/28 02:28:26;;;;;;;;;65.50;51.25;;;;;9.31;64.93;102986.69;5041058;28;45458;-48
2022/01/28 02:30:52;;;;;;;;;68.25;52.75;;;;;9.30;64.78;102991.91;5040926;28;45239;-52
2022/01/28 02:33:20;;;;;;;;;64.25;50.75;;;;;9.30;64.74;102995.41;5040655;28;46199;-53
2022/01/28 02:35:48;;;;;;;;;63.25;49.50;;;;;9.29;64.88;102991.00;5040914;28;45299;-51
2022/01/28 02:38:15;;;;;;;;;66.50;50.75;;;;;9.29;65.06;102987.50;5039544;28;45268;-50
2022/01/28 02:40:45;;;;;;;;;62.75;50.75;;;;;9.29;64.70;102995.38;5040413;28;45299;-51
2022/01/28 02:43:36;;;;;;;;;64.25;50.50;;;;;9.27;64.73;102998.84;5040561;28;47168;-51
2022/01/28 02:46:15;;;;;;;;;59.25;47.75;;;;;9.27;64.76;103001.47;5040527;28;45303;-52
2022/01/28 02:48:51;;;;;;;;;64.25;50.00;;;;;9.26;64.70;102998.81;5039528;28;45389;-48
2022/01/28 02:51:17;;;;;;;;;66.75;52.00;;;;;9.23;64.66;102996.06;5040501;28;45419;-47
2022/01/28 02:53:48;;;;;;;;;65.75;49.50;;;;;9.24;64.70;102987.38;5039760;28;47195;-52
2022/01/28 02:56:23;;;;;;;;;68.75;52.00;;;;;9.23;64.68;102996.97;5040502;28;45322;-52
2022/01/28 02:58:49;;;;;;;;;66.25;50.00;;;;;9.22;64.83;103000.44;5040655;28;45382;-51
2022/01/28 03:01:17;;;;;;;;;66.50;51.00;;;;;9.21;64.85;103000.41;5040343;28;45450;-52
2022/01/28 03:03:44;;;;;;;;;63.50;47.75;;;;;9.21;64.83;103000.41;5040443;28;46314;-52
2022/01/28 03:06:10;;;;;;;;;67.00;49.50;;;;;9.19;64.91;102996.84;5040166;28;45226;-51
2022/01/28 03:08:36;;;;;;;;;67.75;50.50;;;;;9.19;64.89;103000.34;5040419;28;45209;-50
2022/01/28 03:13:58;;;;;;;;;62.00;49.50;;;;;9.18;65.02;102998.59;5040220;28;46129;-48
2022/01/28 03:16:21;;;;;;;;;66.25;53.50;;;;;9.17;64.37;102988.94;5040122;28;45304;-50
2022/01/28 03:23:49;;;;;;;;;59.75;46.00;;;;;9.14;64.94;102980.09;5039512;28;46016;-53
2022/01/28 03:26:15;;;;;;;;;64.50;50.00;;;;;9.14;64.92;102982.72;5039973;28;45337;-49
2022/01/28 03:28:41;;;;;;;;;62.25;47.75;;;;;9.13;64.74;102989.69;5040140;28;45314;-50
2022/01/28 03:31:07;;;;;;;;;67.75;51.50;;;;;9.14;65.01;102995.84;5039949;28;45467;-49
2022/01/28 03:33:32;;;;;;;;;60.75;48.50;;;;;9.14;64.74;102999.34;5039778;28;45399;-51
2022/01/28 03:36:01;;;;;;;;;65.75;50.25;;;;;9.10;64.79;102987.88;5040140;28;45235;-51
2022/01/28 03:38:27;;;;;;;;;62.75;50.00;;;;;9.14;64.91;102990.59;5039730;28;45283;-51
2022/01/28 03:40:55;;;;;;;;;64.25;49.00;;;;;9.14;64.61;102998.47;5039717;28;45552;-49
2022/01/28 03:43:20;;;;;;;;;69.50;52.50;;;;;9.13;64.96;102988.81;5038307;28;47185;-51
2022/01/28 03:45:45;;;;;;;;;68.50;54.00;;;;;9.10;64.76;102980.00;5039866;28;45334;-51
2022/01/28 03:48:11;;;;;;;;;66.00;51.00;;;;;9.10;64.78;102981.75;5039915;28;45232;-50
2022/01/28 03:50:36;;;;;;;;;67.50;51.25;;;;;9.13;64.96;102988.81;5039894;28;46213;-52
2022/01/28 03:53:03;;;;;;;;;63.50;49.25;;;;;9.11;64.86;102987.03;5039331;28;46344;-51
2022/01/28 03:55:29;;;;;;;;;54.25;39.50;;;;;9.11;64.53;102984.41;5038379;28;45224;-53
2022/01/28 03:57:55;;;;;;;;;67.00;50.00;;;;;9.11;65.01;102992.28;5039779;28;45228;-51
2022/01/28 04:00:25;;;;;;;;;60.75;47.75;;;;;9.12;64.95;103001.03;5039940;28;45521;-51
2022/01/28 04:02:58;;;;;;;;;66.00;51.25;;;;;9.13;64.82;103007.16;5038159;28;47045;-48
2022/01/28 04:13:35;;;;;;;;;56.25;47.25;;;;;9.16;64.92;103029.13;5043003;28;45292;-51
2022/01/28 04:16:18;;;;;;;;;62.00;47.50;;;;;9.18;64.96;103026.53;5043078;28;45224;-53
2022/01/28 04:18:43;;;;;;;;;62.50;49.25;;;;;9.19;64.79;103025.72;5043148;28;45211;-49
2022/01/28 04:21:08;;;;;;;;;60.00;47.75;;;;;9.21;64.74;103026.66;5043032;28;45379;-52
2022/01/28 04:23:34;;;;;;;;;64.50;51.25;;;;;9.20;64.66;103028.38;5042502;28;46144;-49
2022/01/28 04:25:59;;;;;;;;;58.50;46.50;;;;;9.21;64.71;103024.03;5042854;28;45193;-51
2022/01/28 04:28:25;;;;;;;;;60.25;48.00;;;;;9.20;64.60;103023.13;5043002;28;45223;-48
2022/01/28 04:30:50;;;;;;;;;62.75;49.75;;;;;9.19;64.54;103023.09;5042974;28;45320;-50
2022/01/28 04:33:16;;;;;;;;;63.25;50.00;;;;;9.15;64.58;103026.47;5042645;28;46027;-50
2022/01/28 04:35:41;;;;;;;;;64.75;50.00;;;;;9.12;64.74;103024.66;5042815;28;45240;-50
2022/01/28 04:38:25;;;;;;;;;61.25;48.75;;;;;9.08;64.70;103026.28;5042687;28;45425;-51
2022/01/28 04:43:45;;;;;;;;;4.50;0.00;;;;;9.04;64.59;103021.81;5041567;28;45309;-48
2022/01/28 04:46:31;;;;;;;;;68.50;51.25;;;;;9.02;64.67;103025.22;5042503;28;45190;-50
2022/01/28 04:54:02;;;;;;;;;58.25;46.75;;;;;8.92;64.54;103032.81;5042142;28;46114;-51
2022/01/28 04:59:24;;;;;;;;;64.25;51.75;;;;;8.84;64.62;103034.34;5042527;28;45270;-49
2022/01/28 05:07:34;;;;;;;;;67.75;50.50;;;;;8.75;64.66;103050.69;5041256;28;45344;-51
2022/01/28 05:28:20;;;;;;;;;68.50;51.50;;;;;8.49;64.69;103077.81;5041830;28;45341;-48
2022/01/28 05:30:46;;;;;;;;;61.00;47.50;;;;;8.48;64.40;103083.88;5042172;28;45229;-50
2022/01/28 05:33:11;;;;;;;;;65.25;47.00;;;;;8.43;64.43;103081.97;5041687;28;45528;-50
2022/01/28 05:35:37;;;;;;;;;56.00;45.00;;;;;8.45;64.51;103087.25;5041744;28;46407;-50
2022/01/28 05:38:02;;;;;;;;;52.00;41.75;;;;;8.43;64.65;103089.84;5040333;28;45465;-49
2022/01/28 05:40:28;;;;;;;;;52.00;39.25;;;;;8.39;64.41;103093.22;5041667;28;45328;-50
2022/01/28 05:42:53;;;;;;;;;61.00;45.75;;;;;8.39;64.58;103093.22;5041548;28;45324;-49
2022/01/28 05:45:19;;;;;;;;;57.50;44.50;;;;;8.38;64.45;103094.06;5041817;28;45346;-50
2022/01/28 05:47:44;;;;;;;;;59.25;47.00;;;;;8.38;64.38;103095.78;5041448;28;45394;-52
2022/01/28 05:50:09;;;;;;;;;58.00;46.25;;;;;8.38;64.28;103107.16;5040647;28;45272;-47
2022/01/28 05:52:35;;;;;;;;;59.50;47.00;;;;;8.37;64.68;103102.75;5041044;28;45455;-48
2022/01/28 05:55:01;;;;;;;;;57.75;42.25;;;;;8.37;64.65;103113.22;5041135;28;46915;-52
2022/01/28 05:57:26;;;;;;;;;59.75;44.75;;;;;8.33;64.60;103108.72;5041739;28;45340;-49
2022/01/28 05:59:53;;;;;;;;;57.50;44.00;;;;;8.33;64.50;103127.06;5046493;28;45230;-48
2022/01/28 06:02:18;;;;;;;;;56.25;42.00;;;;;8.32;64.61;103138.38;5043874;28;45335;-51
2022/01/28 06:04:45;;;;;;;;;58.00;45.25;;;;;8.32;64.63;103140.13;5041262;28;47688;-51
2022/01/28 06:07:10;;;;;;;;;58.50;46.75;;;;;8.21;64.78;103124.03;5039768;28;45261;-50
2022/01/28 06:09:36;;;;;;;;;56.50;43.00;;;;;8.29;64.59;103127.81;5041266;28;45203;-50
2022/01/28 06:12:01;;;;;;;;;56.25;44.50;;;;;8.29;64.55;103138.28;5041221;28;45516;-45
2022/01/28 06:14:26;;;;;;;;;56.00;43.75;;;;;8.28;64.67;103132.16;5041045;28;45496;-48
2022/01/28 06:16:52;;;;;;;;;44.25;36.50;;;;;8.24;64.63;103122.41;5039794;28;45183;-52
2022/01/28 06:19:17;;;;;;;;;58.75;43.50;;;;;8.27;64.70;103134.72;5041371;28;45138;-51
2022/01/28 06:21:43;;;;;;;;;56.75;44.25;;;;;8.25;64.60;103128.53;5040968;28;45772;-52
2022/01/28 06:24:08;;;;;;;;;57.75;45.00;;;;;8.28;64.63;103137.38;5039398;28;47129;-46
2022/01/28 06:26:34;;;;;;;;;56.25;45.00;;;;;8.28;64.42;103132.16;5039632;28;45320;-50
2022/01/28 06:28:59;;;;;;;;;56.25;42.50;;;;;8.29;64.66;103133.06;5039212;28;45796;-51
2022/01/28 06:31:24;;;;;;;;;57.00;43.00;;;;;8.27;64.76;103135.59;5040877;28;45304;-50
2022/01/28 06:33:50;;;;;;;;;62.00;46.00;;;;;8.28;64.45;103137.38;5040794;28;47780;-43
2022/01/28 06:36:15;;;;;;;;;57.50;43.50;;;;;8.28;64.65;103137.38;5040772;28;45297;-44
2022/01/28 06:38:41;;;;;;;;;62.50;46.25;;;;;8.28;64.82;103134.75;5040823;28;45380;-44
2022/01/28 06:41:06;;;;;;;;;59.25;47.00;;;;;8.26;64.77;103131.22;5039297;28;45679;-44
2022/01/28 06:43:32;;;;;;;;;54.00;43.00;;;;;8.29;64.79;103138.28;5040634;28;45248;-42
2022/01/28 06:45:57;;;;;;;;;56.50;42.25;;;;;8.27;64.85;103122.50;5039578;28;45427;-46
2022/01/28 06:48:23;;;;;;;;;54.75;41.25;;;;;8.29;64.68;103126.06;5040568;28;45447;-43
2022/01/28 06:50:48;;;;;;;;;52.25;40.00;;;;;8.29;64.78;103133.94;5040252;28;45584;-47
2022/01/28 06:53:14;;;;;;;;;53.75;42.50;;;;;8.33;64.44;103140.16;5040219;28;45270;-46
2022/01/28 06:55:41;;;;;;;;;51.50;42.75;;;;;8.34;64.45;103138.44;5040174;28;45314;-45
2022/01/28 06:58:07;;;;;;;;;53.00;43.00;;;;;8.32;64.44;103148.88;5040364;28;45427;-45
2022/01/28 07:00:37;;;;;;;;;45.25;38.75;;;;;8.31;64.81;103139.22;5040555;28;45315;-44
2022/01/28 07:03:05;;;;;;;;;52.00;40.50;;;;;8.35;64.73;103150.69;5039579;28;46167;-44
2022/01/28 07:05:31;;;;;;;;;51.00;41.75;;;;;8.33;64.52;103142.78;5029282;28;45577;-44
2022/01/28 07:07:56;;;;;;;;;37.00;32.75;;;;;8.35;64.68;103142.84;5038337;28;45720;-47
2022/01/28 07:10:22;;;;;;;;;57.00;44.75;;;;;8.36;64.77;103153.34;5040069;28;45638;-44
2022/01/28 07:12:47;;;;;;;;;52.50;42.75;;;;;8.37;64.73;103146.41;5034808;28;47124;-44
2022/01/28 07:15:13;;;;;;;;;51.75;37.00;;;;;8.36;64.74;103142.88;5040072;28;45386;-46
2022/01/28 07:17:38;;;;;;;;;49.25;40.75;;;;;8.36;64.59;103144.63;5040514;28;45473;-44
2022/01/28 07:20:05;;;;;;;;;52.25;41.75;;;;;8.36;64.74;103145.50;5039655;28;45538;-45
2022/01/28 07:22:30;;;;;;;;;52.00;43.50;;;;;8.33;64.61;103153.28;5038935;28;46286;-44
2022/01/28 07:24:56;;;;;;;;;56.75;44.00;;;;;8.35;64.75;103154.22;5025124;28;45253;-44
2022/01/28 07:27:21;;;;;;;;;55.75;44.25;;;;;8.36;64.73;103165.59;5022167;28;45323;-47
2022/01/28 07:29:48;;;;;;;;;64.50;47.00;;;;;8.35;64.95;103166.41;5023304;28;45544;-46
2022/01/28 07:32:17;;;;;;;;;55.75;43.00;;;;;8.35;64.78;103164.72;5021867;28;45312;-49
2022/01/28 07:34:43;;;;;;;;;55.50;43.00;;;;;8.35;64.92;103169.03;5029526;28;45248;-46
2022/01/28 07:37:08;;;;;;;;;51.00;39.50;;;;;8.35;64.67;103175.19;5048237;28;45406;-46
2022/01/28 07:39:33;;;;;;;;;54.25;42.50;;;;;8.35;64.75;103184.75;5038459;28;45656;-46
2022/01/28 07:41:59;;;;;;;;;56.00;41.00;;;;;8.33;64.72;103181.19;5038977;28;46924;-47
2022/01/28 07:44:24;;;;;;;;;51.25;41.00;;;;;8.34;64.86;103183.88;5039723;28;45369;-48
2022/01/28 07:46:50;;;;;;;;;58.00;43.00;;;;;8.35;64.80;103190.91;5039885;28;45433;-43
2022/01/28 07:49:15;;;;;;;;;51.75;40.75;;;;;8.34;65.09;103183.88;5039436;28;45324;-46
2022/01/28 07:51:42;;;;;;;;;54.50;44.50;;;;;8.34;64.91;103193.44;5039585;28;45335;-49
2022/01/28 07:54:09;;;;;;;;;50.00;41.75;;;;;8.35;64.98;103200.47;5039209;28;45295;-44
2022/01/28 07:56:35;;;;;;;;;63.25;48.50;;;;;8.35;64.89;103193.53;5039749;28;45225;-46
2022/01/28 07:59:00;;;;;;;;;53.75;41.00;;;;;8.35;65.07;103193.53;5039559;28;45221;-45
2022/01/28 08:01:25;;;;;;;;;58.75;44.50;;;;;8.38;64.65;103198.84;5027487;28;45470;-48
2022/01/28 08:03:51;;;;;;;;;49.25;40.50;;;;;8.38;65.00;103206.72;5044808;28;45233;-44
2022/01/28 08:06:17;;;;;;;;;55.50;41.00;;;;;8.39;64.98;103203.25;5040879;28;45474;-45
2022/01/28 08:08:42;;;;;;;;;59.00;44.75;;;;;8.40;65.06;103209.38;5039055;28;45244;-47
2022/01/28 08:11:07;;;;;;;;;54.75;41.00;;;;;8.42;64.66;103223.44;5040948;28;46393;-47
2022/01/28 08:13:33;;;;;;;;;52.00;39.25;;;;;8.43;65.04;103223.50;5040118;28;45330;-47
2022/01/28 08:15:59;;;;;;;;;57.75;44.00;;;;;8.44;64.76;103220.03;5041080;28;45404;-47
2022/01/28 08:18:25;;;;;;;;;56.50;44.50;;;;;8.48;64.73;103218.44;5038916;28;45426;-44
2022/01/28 08:20:52;;;;;;;;;54.25;43.50;;;;;8.50;64.75;103214.13;5039023;28;46072;-50
2022/01/28 08:23:17;;;;;;;;;54.50;40.25;;;;;8.53;64.76;103215.97;5040634;28;45469;-44
2022/01/28 08:25:43;;;;;;;;;63.75;47.75;;;;;8.55;65.07;103224.78;5040693;28;45362;-45
2022/01/28 08:28:08;;;;;;;;;63.25;48.75;;;;;8.52;64.92;103225.56;5040072;28;45249;-44
2022/01/28 08:30:37;;;;;;;;;60.25;44.50;;;;;8.57;64.99;103228.34;5041002;28;46231;-43
2022/01/28 08:33:05;;;;;;;;;64.00;48.00;;;;;8.57;64.99;103223.13;5029459;28;45470;-45
2022/01/28 08:35:34;;;;;;;;;59.25;46.25;;;;;8.58;64.84;103225.78;5040745;28;45317;-48
2022/01/28 08:38:00;;;;;;;;;58.00;45.75;;;;;8.58;64.91;103235.38;5037357;28;45391;-46
2022/01/28 08:40:28;;;;;;;;;63.00;44.75;;;;;8.60;64.94;103238.94;5028031;28;45335;-44
2022/01/28 08:42:54;;;;;;;;;60.25;45.25;;;;;8.61;64.97;103252.06;5038711;28;45419;-46
2022/01/28 08:45:20;;;;;;;;;58.00;45.50;;;;;8.61;64.80;103246.84;5040154;28;45346;-43
2022/01/28 08:47:46;;;;;;;;;58.25;48.50;;;;;8.64;64.73;103248.69;5038601;28;45323;-43
2022/01/28 08:50:11;;;;;;;;;60.75;48.00;;;;;8.65;64.87;103253.06;5040001;28;46010;-43
2022/01/28 08:52:37;;;;;;;;;62.25;46.50;;;;;8.68;64.92;103255.81;5040502;28;45248;-43
2022/01/28 08:55:03;;;;;;;;;63.25;45.75;;;;;8.69;64.89;103262.84;5042473;28;45331;-44
2022/01/28 08:57:29;;;;;;;;;56.50;45.00;;;;;8.70;64.93;103267.22;5041913;28;45487;-44
2022/01/28 08:59:55;;;;;;;;;60.50;46.00;;;;;8.71;65.13;103279.50;5043173;28;46310;-46
2022/01/28 09:02:21;;;;;;;;;59.00;45.00;;;;;8.72;64.95;103281.28;5041908;28;45465;-47
2022/01/28 09:04:46;;;;;;;;;57.25;47.00;;;;;8.71;64.87;103289.13;5043179;28;45291;-45
2022/01/28 09:07:12;;;;;;;;;63.00;49.00;;;;;8.70;64.79;103295.19;5046905;28;45536;-44
2022/01/28 09:09:47;;;;;;;;;59.25;45.00;;;;;8.70;64.86;103293.44;5041785;28;46152;-44
2022/01/28 09:12:48;;;;;;;;;58.25;46.75;;;;;8.71;64.99;103295.22;5045696;28;45160;-45
2022/01/28 09:15:05;;;;;;;;;57.50;45.50;;;;;8.73;64.85;103297.91;5046883;28;45586;-44
2022/01/28 09:17:31;;;;;;;;;58.00;45.00;;;;;8.74;64.96;103290.09;5041876;28;45224;-46
2022/01/28 09:19:56;;;;;;;;;62.75;49.00;;;;;8.76;65.06;103291.03;5041651;28;45295;-46
2022/01/28 09:22:22;;;;;;;;;63.75;48.50;;;;;8.77;65.01;103295.44;5041471;27;45157;-46
2022/01/28 09:24:47;;;;;;;;;72.75;51.00;;;;;8.80;65.36;103299.91;5046657;28;45224;-45
2022/01/28 09:27:12;;;;;;;;;65.50;48.75;;;;;8.83;65.22;103293.88;5041821;28;45506;-47
2022/01/28 09:29:38;;;;;;;;;64.25;49.50;;;;;8.84;65.24;103298.28;5041722;28;45339;-49
2022/01/28 09:32:04;;;;;;;;;70.25;53.00;;;;;8.86;65.20;103300.09;5041574;28;45303;-47
2022/01/28 09:34:29;;;;;;;;;66.00;49.00;;;;;8.89;65.12;103299.31;5041663;28;45314;-48
2022/01/28 09:36:55;;;;;;;;;67.00;51.25;;;;;8.91;65.62;103295.91;5045527;28;45310;-48
2022/01/28 09:39:20;;;;;;;;;68.50;52.50;;;;;8.96;65.09;103300.44;5040043;28;45350;-49
2022/01/28 09:41:48;;;;;;;;;48.00;32.75;;;;;8.99;65.11;103308.41;5045142;28;45326;-49
2022/01/28 09:44:18;;;;;;;;;76.25;57.00;;;;;9.02;65.50;103305.84;5041825;28;45297;-46
2022/01/28 09:46:44;;;;;;;;;69.25;51.75;;;;;9.05;65.07;103301.59;5042387;28;45340;-49
2022/01/28 09:49:11;;;;;;;;;66.50;51.25;;;;;9.09;65.36;103318.34;5041162;28;46086;-50
2022/01/28 09:51:37;;;;;;;;;69.50;53.00;;;;;9.13;65.35;103306.22;5041290;28;45460;-49
2022/01/28 09:54:02;;;;;;;;;68.75;51.25;;;;;9.15;65.43;103297.56;5041942;28;46029;-46
2022/01/28 09:56:29;;;;;;;;;68.25;51.25;;;;;9.21;65.56;103302.13;5044711;28;45531;-46
2022/01/28 09:58:55;;;;;;;;;65.25;51.25;;;;;9.22;65.45;103306.50;5037513;28;47259;-48
2022/01/28 10:01:20;;;;;;;;;73.50;54.25;;;;;9.24;65.37;103296.97;5043881;28;45838;-50
2022/01/28 10:03:59;;;;;;;;;69.75;54.50;;;;;9.29;65.63;103298.00;5038738;28;45442;-48
2022/01/28 10:06:35;;;;;;;;;65.00;50.50;;;;;9.35;65.45;103298.19;5045127;28;45302;-50
2022/01/28 10:09:08;;;;;;;;;59.25;45.50;;;;;9.37;65.75;103293.91;5040764;28;45422;-46
2022/01/28 10:11:35;;;;;;;;;67.75;51.00;;;;;9.46;65.55;103300.28;5044888;28;45428;-46
2022/01/28 10:14:08;;;;;;;;;61.00;49.00;;;;;9.49;65.42;103295.13;5046194;28;45258;-54
2022/01/28 10:16:34;;;;;;;;;62.25;49.75;;;;;9.57;65.47;103298.88;5044946;28;45357;-48
2022/01/28 10:19:03;;;;;;;;;68.75;52.25;;;;;9.64;65.38;103299.97;5040551;28;46075;-44
2022/01/28 10:21:43;;;;;;;;;70.75;50.50;;;;;9.71;65.67;103297.56;5046140;28;45231;-50
2022/01/28 10:24:15;;;;;;;;;62.25;49.25;;;;;9.77;65.36;103302.09;5042262;28;45398;-50
2022/01/28 10:27:06;;;;;;;;;62.25;48.50;;;;;9.84;65.74;103301.44;5043142;28;46192;-47
2022/01/28 10:29:33;;;;;;;;;63.25;49.25;;;;;9.95;65.52;103298.25;5040933;28;46111;-45
2022/01/28 10:32:00;;;;;;;;;65.25;48.00;;;;;10.04;65.50;103303.78;5045937;28;45322;-46
2022/01/28 10:34:32;;;;;;;;;64.00;46.25;;;;;10.12;65.73;103302.25;5040950;28;45290;-49
2022/01/28 10:37:12;;;;;;;;;68.00;50.00;;;;;10.19;65.42;103303.34;5041223;28;45440;-48
2022/01/28 10:39:40;;;;;;;;;65.75;50.00;;;;;10.28;65.47;103308.84;5040994;28;45490;-46
2022/01/28 10:42:06;;;;;;;;;66.00;50.50;;;;;10.33;65.50;103296.72;5042977;28;45508;-46
2022/01/28 10:44:32;;;;;;;;;58.75;48.50;;;;;10.41;65.68;103296.94;5039444;28;45414;-46
2022/01/28 10:47:06;;;;;;;;;61.50;47.50;;;;;10.49;65.54;103297.16;5046077;28;45437;-49
2022/01/28 10:49:35;;;;;;;;;60.25;47.00;;;;;10.57;65.43;103306.16;5044796;28;46482;-48
2022/01/28 10:52:06;;;;;;;;;62.50;48.00;;;;;10.62;65.59;103315.03;5041005;28;45366;-46
2022/01/28 10:54:32;;;;;;;;;46.50;38.00;;;;;10.69;65.44;103317.00;5040347;28;45450;-45
2022/01/28 10:56:59;;;;;;;;;60.00;45.75;;;;;10.76;65.31;103322.41;5040451;28;45315;-46
2022/01/28 10:59:30;;;;;;;;;53.25;43.75;;;;;10.81;65.25;103328.69;5046038;28;45992;-47
2022/01/28 11:01:56;;;;;;;;;60.50;45.25;;;;;10.84;65.22;103320.88;5040360;28;45458;-46
2022/01/28 11:04:22;;;;;;;;;52.75;41.00;;;;;10.88;64.85;103321.00;5035105;28;45280;-44
2022/01/28 11:06:50;;;;;;;;;55.50;44.25;;;;;10.89;65.04;103330.66;5044816;28;45502;-45
2022/01/28 11:09:17;;;;;;;;;51.50;41.75;;;;;10.87;65.00;103327.09;5044629;28;45429;-47
2022/01/28 11:11:43;;;;;;;;;62.50;48.00;;;;;10.88;64.96;103328.00;5038047;28;45339;-46
2022/01/28 11:14:09;;;;;;;;;59.50;44.25;;;;;10.87;65.13;103328.84;5044683;28;45504;-50
2022/01/28 11:16:35;;;;;;;;;61.75;46.50;;;;;10.84;64.85;103336.66;5040012;28;45412;-46
2022/01/28 11:19:03;;;;;;;;;60.25;44.75;;;;;10.85;64.78;103330.53;5039593;28;45326;-47
2022/01/28 11:21:43;;;;;;;;;50.50;39.00;;;;;10.82;64.61;103325.22;5040035;28;45280;-46
2022/01/28 11:24:46;;;;;;;;;48.25;37.25;;;;;10.80;64.59;103329.53;5036241;28;45469;-46
2022/01/28 11:27:25;;;;;;;;;40.50;34.50;;;;;10.75;64.48;103321.50;5044764;28;45246;-47
2022/01/28 11:30:10;;;;;;;;;39.00;32.25;;;;;10.72;64.25;103322.31;5039924;28;45446;-44
2022/01/28 11:33:01;;;;;;;;;35.00;32.50;;;;;10.67;64.25;103317.81;5039644;28;45340;-47
2022/01/28 11:35:53;;;;;;;;;36.00;30.25;;;;;10.61;64.22;103309.75;5040862;28;45413;-45
2022/01/28 11:38:24;;;;;;;;;33.00;27.25;;;;;10.57;64.13;103307.03;5031688;28;45221;-47
2022/01/28 11:40:57;;;;;;;;;38.25;30.75;;;;;10.54;64.03;103303.41;5039433;28;45509;-46
2022/01/28 11:43:24;;;;;;;;;32.25;28.75;;;;;10.51;63.83;103306.84;5043865;28;45269;-49
2022/01/28 11:46:19;;;;;;;;;39.25;33.00;;;;;10.46;63.84;103297.97;5039164;28;45513;-45
2022/01/28 11:48:54;;;;;;;;;35.75;29.25;;;;;10.44;63.82;103293.50;5041552;28;45564;-46
2022/01/28 11:51:24;;;;;;;;;36.00;31.25;;;;;10.42;63.68;103292.59;5043095;28;45311;-47
2022/01/28 11:53:55;;;;;;;;;36.50;31.50;;;;;10.39;63.67;103294.28;5042286;28;45508;-45
2022/01/28 11:56:21;;;;;;;;;31.50;29.00;;;;;10.38;63.71;103284.63;5035402;28;45374;-44
2022/01/28 11:58:53;;;;;;;;;32.00;26.75;;;;;10.37;63.57;103282.81;5039326;28;45396;-48
2022/01/28 12:01:34;;;;;;;;;28.00;25.00;;;;;10.37;63.67;103279.31;5043631;28;45493;-45
2022/01/28 12:04:24;;;;;;;;;37.00;29.50;;;;;10.36;63.61;103269.66;5038503;28;45137;-45
2022/01/28 12:06:54;;;;;;;;;37.25;30.50;;;;;10.35;63.67;103263.47;5039359;28;45418;-45
2022/01/28 12:09:19;;;;;;;;;30.50;25.25;;;;;10.35;63.63;103263.47;5052775;28;45472;-44
2022/01/28 12:11:45;;;;;;;;;35.75;28.75;;;;;10.37;63.48;103263.53;5046543;28;46261;-46
2022/01/28 12:14:13;;;;;;;;;30.50;25.25;;;;;10.34;63.45;103248.56;5044599;28;45453;-44
2022/01/28 12:16:46;;;;;;;;;36.75;29.50;;;;;10.35;63.57;103250.34;5046180;28;45478;-45
2022/01/28 12:19:19;;;;;;;;;36.50;28.75;;;;;10.38;63.63;103244.31;5045959;28;45173;-46
2022/01/28 12:22:04;;;;;;;;;17.25;14.75;;;;;10.38;63.53;103237.28;5043172;28;46307;-47
2022/01/28 12:24:31;;;;;;;;;30.25;25.25;;;;;10.39;63.45;103239.09;5049796;28;45236;-46
2022/01/28 12:27:11;;;;;;;;;29.75;24.75;;;;;10.39;63.36;103233.81;5047288;28;45306;-49
2022/01/28 12:29:43;;;;;;;;;31.25;28.00;;;;;10.45;63.59;103245.34;5049900;28;45262;-48
2022/01/28 12:32:10;;;;;;;;;35.75;31.50;;;;;10.47;63.47;103231.41;5029894;28;45488;-47
2022/01/28 12:34:42;;;;;;;;;28.25;23.75;;;;;10.49;63.51;103223.53;5054767;28;45335;-46
2022/01/28 12:37:08;;;;;;;;;31.50;29.00;;;;;10.51;63.33;103211.34;5051189;28;45327;-48
2022/01/28 12:39:40;;;;;;;;;37.00;29.00;;;;;10.56;63.44;103212.34;5046959;28;45511;-46
2022/01/28 12:42:23;;;;;;;;;34.75;29.75;;;;;10.58;63.51;103208.00;5052037;28;46976;-48
2022/01/28 12:44:53;;;;;;;;;40.00;25.25;;;;;10.63;63.20;103195.88;5043868;28;45217;-48
2022/01/28 12:47:19;;;;;;;;;39.00;31.50;;;;;10.67;63.45;103210.84;5055338;28;45415;-47
2022/01/28 12:49:46;;;;;;;;;22.75;22.75;;;;;10.70;63.41;103218.84;5048856;28;45529;-46
2022/01/28 12:52:11;;;;;;;;;35.50;32.00;;;;;10.75;63.53;103223.31;5049422;28;46953;-47